Stockbridge, Michigan
Current Conditions -  °F | °C
As of 10:52 PM on Saturday 25 Oct 2014 (Local Time) from KTEW Reporting Station
Clear Clear  
Wind Chill: 50°   Ceiling: Unl
Heat Index: 50°   Visibility: 10mi
Dew Point: 34°   Wind: 6mph
Humidity: 55%   Direction: 270°W
Pressure: 29.85"   Gusts: NA
Location:  42.45°N, 84.18°W
Report Text: KTEW 260252Z AUTO 27005KT 10SM CLR 10/01 A2985 RMK AO2 T01000012
Loading
Personal Weather Stations






























Interactive Weather Map
Tropical Storm Tracking
New forecast layout! Learn more

10-Day Weather Forecast

Advertisements
Track Severe Weather on mobile